Time;durP1;ratioP1;P1;durP2;ratioP2;P2;SDS_P1;SDS_P2;PMS_P1;PMS_P2;Temp;Humidity;BMP_temperature;BMP_pressure;BME280_temperature;BME280_humidity;BME280_pressure;Samples;Min_cycle;Max_cycle;Signal;HPM_P1;HPM_P2
2023/08/05 00:00:54;;;;;;;3.07;2.40;;;17.80;99.90;;;;;;4967653;28;20606;-76
2023/08/05 00:03:20;;;;;;;3.97;2.30;;;17.70;99.90;;;;;;4954647;28;20677;-76
2023/08/05 00:05:45;;;;;;;3.60;2.83;;;17.70;99.90;;;;;;4974715;28;20993;-76
2023/08/05 00:08:11;;;;;;;3.03;2.57;;;17.70;99.90;;;;;;4966819;28;20675;-76
2023/08/05 00:10:44;;;;;;;4.00;3.00;;;17.70;99.90;;;;;;4956477;29;20203;-76
2023/08/05 00:13:11;;;;;;;4.30;3.30;;;17.60;99.90;;;;;;4954286;29;20180;-76
2023/08/05 00:15:37;;;;;;;3.50;2.87;;;17.60;99.90;;;;;;4954059;28;20647;-76
2023/08/05 00:18:02;;;;;;;7.33;3.50;;;17.60;99.90;;;;;;4953752;29;21237;-76
2023/08/05 00:20:28;;;;;;;4.87;4.03;;;17.50;99.90;;;;;;4955042;28;20545;-76
2023/08/05 00:22:54;;;;;;;4.60;3.43;;;17.50;99.90;;;;;;4954990;28;20185;-76
2023/08/05 00:25:19;;;;;;;15.00;3.73;;;17.50;99.90;;;;;;4955290;28;20168;-76
2023/08/05 00:27:45;;;;;;;5.10;3.30;;;17.40;99.90;;;;;;4952974;28;20246;-77
2023/08/05 00:30:11;;;;;;;3.60;2.57;;;17.40;99.90;;;;;;4955117;28;20310;-76
2023/08/05 00:32:37;;;;;;;6.37;3.43;;;17.40;99.90;;;;;;4955258;28;20184;-76
2023/08/05 00:35:05;;;;;;;3.90;2.90;;;17.40;99.90;;;;;;4953874;29;20595;-77
2023/08/05 00:37:31;;;;;;;8.13;3.07;;;17.30;99.90;;;;;;4952975;28;20634;-76
2023/08/05 00:39:58;;;;;;;3.93;3.13;;;17.30;99.90;;;;;;4955194;28;20592;-76
2023/08/05 00:42:25;;;;;;;4.67;3.40;;;17.30;99.90;;;;;;4954534;28;20612;-76
2023/08/05 00:44:51;;;;;;;3.83;3.10;;;17.20;99.90;;;;;;4953743;29;21168;-76
2023/08/05 00:47:20;;;;;;;4.43;3.67;;;17.20;99.90;;;;;;4955266;28;20647;-76
2023/08/05 00:49:49;;;;;;;3.73;3.07;;;17.20;99.90;;;;;;4953655;29;20644;-77
2023/08/05 00:52:18;;;;;;;7.53;4.03;;;17.20;99.90;;;;;;4953289;29;20736;-76
2023/08/05 00:54:44;;;;;;;4.60;3.60;;;17.20;99.90;;;;;;4954754;28;20572;-76
2023/08/05 00:57:12;;;;;;;3.73;3.33;;;17.10;99.90;;;;;;4952939;28;20994;-77
2023/08/05 00:59:38;;;;;;;5.80;3.20;;;17.10;99.90;;;;;;4953180;28;20819;-76
2023/08/05 01:03:00;;;;;;;6.20;3.57;;;17.10;99.90;;;;;;4953193;28;20704;-76
2023/08/05 01:05:26;;;;;;;5.53;3.37;;;17.00;99.90;;;;;;4949613;29;20643;-76
2023/08/05 01:08:06;;;;;;;4.20;2.70;;;17.00;99.90;;;;;;4953264;29;21000;-76
2023/08/05 01:10:32;;;;;;;3.83;3.43;;;17.00;99.90;;;;;;4951590;28;20628;-77
2023/08/05 01:12:58;;;;;;;4.57;3.60;;;17.00;99.90;;;;;;4963394;28;20671;-77
2023/08/05 01:15:24;;;;;;;4.00;3.60;;;16.90;99.90;;;;;;4952763;29;20684;-77
2023/08/05 01:17:53;;;;;;;6.47;3.03;;;16.90;99.90;;;;;;4954293;28;20207;-77
2023/08/05 01:20:21;;;;;;;5.20;3.13;;;16.90;99.90;;;;;;4935982;29;20172;-77
2023/08/05 01:22:53;;;;;;;3.90;2.70;;;16.80;99.90;;;;;;4952018;29;20647;-77
2023/08/05 01:25:31;;;;;;;3.97;3.10;;;16.80;99.90;;;;;;4956444;29;20607;-77
2023/08/05 01:28:00;;;;;;;4.90;3.70;;;16.80;99.90;;;;;;4962420;28;20964;-77
2023/08/05 01:30:27;;;;;;;5.77;4.83;;;16.70;99.90;;;;;;4952554;29;20644;-77
2023/08/05 01:32:54;;;;;;;5.03;4.40;;;16.70;99.90;;;;;;4952682;28;20584;-77
2023/08/05 01:35:23;;;;;;;4.37;3.40;;;16.70;99.90;;;;;;4936388;29;20588;-77
2023/08/05 01:37:49;;;;;;;6.63;3.80;;;16.70;99.90;;;;;;4952438;29;20624;-77
2023/08/05 01:40:15;;;;;;;6.43;4.10;;;16.70;99.90;;;;;;4952649;28;20632;-77
2023/08/05 01:42:41;;;;;;;3.27;2.93;;;16.70;99.90;;;;;;4951913;29;20584;-77
2023/08/05 01:45:07;;;;;;;4.47;2.60;;;16.60;99.90;;;;;;4952483;29;20935;-77
2023/08/05 01:47:33;;;;;;;4.23;3.33;;;16.60;99.90;;;;;;4952099;28;20280;-77
2023/08/05 01:49:59;;;;;;;3.63;3.23;;;16.60;99.90;;;;;;4936525;29;20611;-77
2023/08/05 01:52:24;;;;;;;7.23;3.50;;;16.60;99.90;;;;;;4952933;28;20563;-77
2023/08/05 01:54:50;;;;;;;3.70;2.90;;;16.70;99.90;;;;;;4952313;29;20195;-77
2023/08/05 01:57:16;;;;;;;2.63;2.37;;;16.70;99.90;;;;;;4936384;29;20198;-77
2023/08/05 01:59:42;;;;;;;4.97;3.67;;;16.70;99.90;;;;;;4939481;29;20580;-77
2023/08/05 02:02:07;;;;;;;4.20;3.00;;;16.70;99.90;;;;;;4952617;29;20538;-77
2023/08/05 02:04:33;;;;;;;4.10;3.30;;;16.70;99.90;;;;;;4920564;29;20181;-77
2023/08/05 02:06:59;;;;;;;3.67;3.10;;;16.70;99.90;;;;;;4957216;28;20294;-77
2023/08/05 02:09:24;;;;;;;3.73;2.70;;;16.70;99.90;;;;;;4975170;28;20172;-77
2023/08/05 02:11:50;;;;;;;3.90;3.50;;;16.70;99.90;;;;;;4979573;28;20200;-77
2023/08/05 02:14:17;;;;;;;3.80;2.80;;;16.70;99.90;;;;;;4985992;28;20171;-76
2023/08/05 02:16:43;;;;;;;5.07;3.60;;;16.70;99.90;;;;;;4982355;28;20614;-77
2023/08/05 02:19:09;;;;;;;3.07;2.80;;;16.70;99.90;;;;;;4976866;28;20660;-77
2023/08/05 02:21:34;;;;;;;4.77;3.70;;;16.70;99.90;;;;;;4971114;28;20645;-77
2023/08/05 02:24:03;;;;;;;3.80;3.10;;;16.70;99.90;;;;;;4973254;28;20595;-77
2023/08/05 02:26:28;;;;;;;4.60;3.50;;;16.70;99.90;;;;;;4967005;28;20647;-77
2023/08/05 02:28:54;;;;;;;5.20;3.17;;;16.70;99.90;;;;;;4971159;28;20596;-77
2023/08/05 02:31:20;;;;;;;3.80;2.53;;;16.70;99.90;;;;;;4971127;28;20811;-78
2023/08/05 02:33:46;;;;;;;4.40;3.23;;;16.70;99.90;;;;;;4971624;28;20605;-77
2023/08/05 02:36:12;;;;;;;6.03;3.20;;;16.70;99.90;;;;;;4972587;28;20662;-77
2023/08/05 02:38:38;;;;;;;4.47;3.40;;;16.60;99.90;;;;;;4923041;29;20188;-77
2023/08/05 02:41:08;;;;;;;3.83;3.20;;;16.60;99.90;;;;;;4966457;28;20189;-77
2023/08/05 02:43:33;;;;;;;5.83;3.90;;;16.60;99.90;;;;;;4954801;28;20242;-77
2023/08/05 02:45:59;;;;;;;4.40;3.50;;;16.50;99.90;;;;;;4971101;28;21030;-76
2023/08/05 02:48:26;;;;;;;4.17;3.40;;;16.50;99.90;;;;;;4970508;28;20179;-77
2023/08/05 02:50:53;;;;;;;6.60;4.57;;;16.50;99.90;;;;;;4923231;28;20627;-77
2023/08/05 02:53:19;;;;;;;3.93;3.53;;;16.50;99.90;;;;;;4927810;29;20583;-77
2023/08/05 02:55:45;;;;;;;6.00;3.70;;;16.50;99.90;;;;;;4954153;28;20634;-77
2023/08/05 02:58:12;;;;;;;5.77;3.40;;;16.50;99.90;;;;;;4962653;28;20598;-77
2023/08/05 03:00:37;;;;;;;4.80;3.47;;;16.40;99.90;;;;;;4936457;28;20678;-77
2023/08/05 03:03:04;;;;;;;6.90;4.20;;;16.40;99.90;;;;;;4956483;28;21215;-77
2023/08/05 03:05:30;;;;;;;6.97;3.60;;;16.40;99.90;;;;;;4938820;28;20184;-77
2023/08/05 03:07:55;;;;;;;4.73;3.00;;;16.40;99.90;;;;;;4958467;28;20600;-77
2023/08/05 03:10:21;;;;;;;4.47;3.63;;;16.30;99.90;;;;;;4951216;28;20191;-77
2023/08/05 03:12:47;;;;;;;5.33;3.50;;;16.30;99.90;;;;;;4945542;29;20267;-76
2023/08/05 03:15:13;;;;;;;5.90;3.97;;;16.30;99.90;;;;;;4966807;28;20634;-77
2023/08/05 03:17:39;;;;;;;3.63;2.97;;;16.30;99.90;;;;;;4930513;28;20231;-77
2023/08/05 03:20:05;;;;;;;5.93;4.60;;;16.30;99.90;;;;;;4941472;29;20588;-76
2023/08/05 03:22:34;;;;;;;5.50;3.87;;;16.30;99.90;;;;;;4951752;28;20203;-77
2023/08/05 03:25:01;;;;;;;4.50;3.70;;;16.30;99.90;;;;;;4931031;28;20598;-77
2023/08/05 03:27:27;;;;;;;4.50;4.00;;;16.30;99.90;;;;;;4963467;28;20646;-77
2023/08/05 03:29:56;;;;;;;3.90;3.50;;;16.30;99.90;;;;;;4970553;28;20617;-77
2023/08/05 03:32:22;;;;;;;4.50;4.10;;;16.30;99.90;;;;;;4938309;28;20638;-77
2023/08/05 03:34:49;;;;;;;4.80;3.20;;;16.30;99.90;;;;;;4937680;28;20591;-76
2023/08/05 03:37:14;;;;;;;5.10;3.60;;;16.40;99.90;;;;;;4969060;28;20614;-77
2023/08/05 03:39:40;;;;;;;4.40;3.43;;;16.40;99.90;;;;;;4974025;28;21182;-77
2023/08/05 03:42:06;;;;;;;7.90;3.97;;;16.40;99.90;;;;;;4965593;28;20191;-77
2023/08/05 03:44:32;;;;;;;3.77;3.37;;;16.40;99.90;;;;;;4941734;28;21203;-77
2023/08/05 03:46:58;;;;;;;3.73;3.40;;;16.40;99.90;;;;;;4929627;29;20616;-78
2023/08/05 03:49:24;;;;;;;5.00;3.60;;;16.40;99.90;;;;;;4964989;28;20631;-77
2023/08/05 03:51:50;;;;;;;4.27;3.50;;;16.40;99.90;;;;;;4974113;28;20286;-77
2023/08/05 03:54:16;;;;;;;3.47;3.00;;;16.40;99.90;;;;;;4958018;28;20674;-77
2023/08/05 03:56:41;;;;;;;3.73;3.20;;;16.40;99.90;;;;;;4965600;28;20615;-77
2023/08/05 03:59:07;;;;;;;6.43;3.30;;;16.40;99.90;;;;;;4965586;28;20168;-77
2023/08/05 04:01:34;;;;;;;5.07;3.73;;;16.30;99.90;;;;;;4972824;28;20187;-75
2023/08/05 04:04:01;;;;;;;6.53;3.23;;;16.30;99.90;;;;;;4973682;28;20591;-75
2023/08/05 04:06:28;;;;;;;4.83;3.33;;;16.30;99.90;;;;;;4973313;28;20709;-75
2023/08/05 04:08:54;;;;;;;4.03;3.37;;;16.30;99.90;;;;;;4973335;28;20694;-75
2023/08/05 04:11:23;;;;;;;5.10;4.17;;;16.30;99.90;;;;;;4926467;29;20730;-75
2023/08/05 04:13:52;;;;;;;8.13;4.67;;;16.30;99.90;;;;;;4972835;28;20628;-75
2023/08/05 04:16:19;;;;;;;3.93;3.53;;;16.30;99.90;;;;;;4957416;28;20607;-76
2023/08/05 04:18:48;;;;;;;9.23;4.03;;;16.30;99.90;;;;;;4942188;28;20620;-76
2023/08/05 04:21:15;;;;;;;4.20;3.00;;;16.20;99.90;;;;;;4956870;28;20587;-76
2023/08/05 04:23:42;;;;;;;3.47;3.10;;;16.20;99.90;;;;;;4957075;28;21160;-77
2023/08/05 04:26:08;;;;;;;4.13;3.40;;;16.20;99.90;;;;;;4973716;28;20696;-76
2023/08/05 04:28:33;;;;;;;4.40;3.23;;;16.20;99.90;;;;;;4970219;28;20587;-76
2023/08/05 04:30:59;;;;;;;9.00;4.20;;;16.20;99.90;;;;;;4968727;28;20659;-76
2023/08/05 04:33:28;;;;;;;3.60;3.00;;;16.20;99.90;;;;;;4963036;28;20176;-76
2023/08/05 04:35:54;;;;;;;4.97;3.10;;;16.20;99.90;;;;;;4958366;28;20628;-76
2023/08/05 04:38:20;;;;;;;5.27;3.90;;;16.20;99.90;;;;;;4967388;28;20590;-78
2023/08/05 04:40:47;;;;;;;3.47;3.17;;;16.30;99.90;;;;;;4972497;28;20595;-76
2023/08/05 04:43:13;;;;;;;3.80;3.13;;;16.30;99.90;;;;;;4972890;28;20594;-76
2023/08/05 04:45:38;;;;;;;4.27;3.03;;;16.30;99.90;;;;;;4965893;28;20686;-77
2023/08/05 04:48:05;;;;;;;5.10;3.50;;;16.40;99.90;;;;;;4972711;28;20222;-75
2023/08/05 04:50:31;;;;;;;5.53;3.50;;;16.40;99.90;;;;;;4964176;28;20606;-75
2023/08/05 04:52:56;;;;;;;4.60;3.73;;;16.50;99.90;;;;;;4956996;28;20595;-76
2023/08/05 04:55:22;;;;;;;4.30;3.43;;;16.50;99.90;;;;;;4972773;28;20183;-76
2023/08/05 04:57:54;;;;;;;3.57;3.13;;;16.60;99.90;;;;;;4956331;28;20663;-75
2023/08/05 05:00:20;;;;;;;6.07;3.60;;;16.60;99.90;;;;;;4957814;28;20686;-76
2023/08/05 05:02:48;;;;;;;6.37;3.47;;;16.70;99.90;;;;;;4965010;28;20626;-77
2023/08/05 05:05:14;;;;;;;7.50;3.70;;;16.80;99.90;;;;;;4972565;28;20235;-76
2023/08/05 05:07:40;;;;;;;3.77;3.43;;;16.90;99.90;;;;;;4963521;28;20662;-76
2023/08/05 05:10:06;;;;;;;4.10;3.33;;;17.00;99.90;;;;;;4928231;28;20602;-76
2023/08/05 05:12:32;;;;;;;6.70;3.23;;;17.20;99.90;;;;;;4956032;28;20204;-77
2023/08/05 05:14:58;;;;;;;3.80;3.33;;;17.30;99.90;;;;;;4944105;28;20722;-77
2023/08/05 05:17:23;;;;;;;6.57;4.27;;;17.40;99.90;;;;;;4965154;28;20203;-77
2023/08/05 05:19:49;;;;;;;5.00;3.23;;;17.50;99.90;;;;;;4964366;28;20576;-76
2023/08/05 05:22:16;;;;;;;3.93;3.50;;;17.60;99.90;;;;;;4971375;28;20215;-77
2023/08/05 05:24:41;;;;;;;3.70;2.80;;;17.70;99.90;;;;;;4973331;28;20179;-76
2023/08/05 05:27:08;;;;;;;5.30;3.03;;;17.80;99.90;;;;;;4965723;28;20619;-76
2023/08/05 05:29:35;;;;;;;3.47;3.17;;;18.00;99.90;;;;;;4969745;28;20227;-77
2023/08/05 05:32:00;;;;;;;3.77;3.30;;;18.10;99.90;;;;;;4961743;28;20636;-76
2023/08/05 05:34:26;;;;;;;4.63;3.27;;;18.20;99.90;;;;;;4958621;28;20581;-76
2023/08/05 05:36:52;;;;;;;5.30;3.50;;;18.20;99.90;;;;;;4973180;28;21298;-76
2023/08/05 05:39:18;;;;;;;3.93;3.07;;;18.20;99.90;;;;;;4975016;28;20722;-77
2023/08/05 05:41:44;;;;;;;4.77;3.40;;;18.20;99.90;;;;;;4964343;29;20176;-76
2023/08/05 05:44:09;;;;;;;5.13;3.70;;;18.20;99.90;;;;;;4964980;28;20585;-77
2023/08/05 05:46:35;;;;;;;4.03;3.47;;;18.10;99.90;;;;;;4970062;28;20637;-77
2023/08/05 05:49:03;;;;;;;3.90;3.60;;;18.10;99.90;;;;;;4972017;28;20182;-77
2023/08/05 05:51:28;;;;;;;4.57;3.07;;;18.00;99.90;;;;;;4973189;28;20203;-77
2023/08/05 05:53:55;;;;;;;3.63;3.30;;;18.00;99.90;;;;;;4960962;28;20599;-76
2023/08/05 05:56:21;;;;;;;4.47;3.03;;;18.10;99.90;;;;;;4966279;28;20258;-76
2023/08/05 05:58:47;;;;;;;3.60;3.13;;;18.10;99.90;;;;;;4972781;28;20591;-77
2023/08/05 06:01:13;;;;;;;9.40;5.23;;;18.20;99.90;;;;;;4971270;28;20543;-77
2023/08/05 06:03:40;;;;;;;4.80;3.27;;;18.20;99.90;;;;;;4964987;28;20190;-77
2023/08/05 06:06:06;;;;;;;5.27;4.30;;;18.20;99.90;;;;;;4967472;28;20619;-76
2023/08/05 06:08:33;;;;;;;5.40;3.90;;;18.20;99.90;;;;;;4967879;28;20606;-76
2023/08/05 06:11:07;;;;;;;4.50;3.47;;;18.20;99.90;;;;;;4947179;28;20254;-77
2023/08/05 06:13:32;;;;;;;5.67;4.40;;;18.20;99.90;;;;;;4957615;28;20584;-77
2023/08/05 06:15:58;;;;;;;5.70;4.13;;;18.20;99.90;;;;;;4966657;28;21209;-77
2023/08/05 06:18:24;;;;;;;4.93;4.30;;;18.20;99.90;;;;;;4958567;28;20669;-77
2023/08/05 06:20:50;;;;;;;4.73;4.07;;;18.30;99.90;;;;;;4952289;29;20180;-77
2023/08/05 06:23:16;;;;;;;7.07;4.70;;;18.50;99.90;;;;;;4959525;28;20757;-77
2023/08/05 06:25:42;;;;;;;5.67;3.80;;;18.60;99.90;;;;;;4963882;28;20188;-76
2023/08/05 06:28:08;;;;;;;10.13;4.00;;;18.70;99.90;;;;;;4960164;28;20637;-77
2023/08/05 06:30:34;;;;;;;6.80;4.20;;;18.80;99.90;;;;;;4954371;28;20596;-78
2023/08/05 06:33:00;;;;;;;4.87;4.37;;;18.80;99.90;;;;;;4985090;28;20594;-77
2023/08/05 06:35:26;;;;;;;5.33;4.47;;;18.80;99.90;;;;;;4985116;28;20727;-77
2023/08/05 06:37:52;;;;;;;6.07;4.97;;;18.80;99.90;;;;;;4982146;28;20690;-77
2023/08/05 06:40:18;;;;;;;5.43;4.73;;;18.80;99.90;;;;;;4976846;28;20590;-78
2023/08/05 06:42:44;;;;;;;7.07;5.10;;;18.80;99.90;;;;;;4973058;28;20650;-77
2023/08/05 06:45:10;;;;;;;6.30;5.10;;;18.70;99.90;;;;;;5003371;28;20190;-78
2023/08/05 06:47:36;;;;;;;5.93;4.60;;;18.70;99.90;;;;;;4982918;28;20263;-78
2023/08/05 06:50:06;;;;;;;6.43;4.40;;;18.70;99.90;;;;;;4967570;28;20647;-77
2023/08/05 06:52:33;;;;;;;5.00;3.73;;;18.80;99.90;;;;;;4958276;29;20619;-77
2023/08/05 06:55:03;;;;;;;4.00;3.60;;;18.90;99.90;;;;;;4953169;29;21157;-77
2023/08/05 06:57:32;;;;;;;4.30;3.90;;;19.10;99.90;;;;;;4952070;28;20629;-78
2023/08/05 06:59:58;;;;;;;3.83;3.43;;;19.20;99.90;;;;;;4962091;28;20592;-77
2023/08/05 07:02:25;;;;;;;4.80;3.43;;;19.40;99.90;;;;;;4959494;28;21176;-76
2023/08/05 07:04:54;;;;;;;7.20;3.90;;;19.80;99.90;;;;;;4954690;28;20595;-76
2023/08/05 07:07:20;;;;;;;4.07;3.33;;;20.20;99.90;;;;;;4944389;28;20655;-76
2023/08/05 07:09:46;;;;;;;3.17;2.87;;;20.90;99.90;;;;;;4946346;29;20592;-76
2023/08/05 07:12:12;;;;;;;4.50;3.00;;;21.60;99.90;;;;;;4943917;28;20651;-75
2023/08/05 07:14:38;;;;;;;3.47;2.80;;;22.40;99.90;;;;;;4964704;28;20746;-76
2023/08/05 07:17:04;;;;;;;4.00;2.63;;;23.10;99.90;;;;;;4967871;28;20197;-76
2023/08/05 07:19:30;;;;;;;3.63;2.63;;;23.70;99.90;;;;;;4962940;28;20928;-76
2023/08/05 07:21:56;;;;;;;6.40;2.47;;;24.30;99.90;;;;;;4954371;29;20643;-76
2023/08/05 07:24:22;;;;;;;3.80;2.63;;;24.80;99.90;;;;;;4955268;28;20239;-77
2023/08/05 07:26:48;;;;;;;2.50;1.97;;;25.10;99.90;;;;;;4953220;28;20646;-77
2023/08/05 07:29:13;;;;;;;3.03;2.30;;;25.10;99.90;;;;;;4951168;28;20180;-77
2023/08/05 07:31:39;;;;;;;2.93;2.03;;;25.30;99.90;;;;;;4955912;28;20299;-76
2023/08/05 07:34:05;;;;;;;3.23;2.17;;;25.50;99.90;;;;;;4963107;28;20177;-76
2023/08/05 07:36:31;;;;;;;3.30;2.20;;;26.10;99.90;;;;;;4956250;28;20209;-76
2023/08/05 07:38:58;;;;;;;2.07;1.80;;;26.70;99.90;;;;;;4954560;29;20186;-76
2023/08/05 07:41:26;;;;;;;2.87;2.07;;;27.40;99.90;;;;;;4955372;28;20591;-76
2023/08/05 07:43:57;;;;;;;2.87;1.67;;;28.10;99.90;;;;;;4955865;28;21004;-76
2023/08/05 07:46:25;;;;;;;3.07;1.47;;;29.00;99.90;;;;;;4954573;28;20629;-77
2023/08/05 07:48:55;;;;;;;2.17;1.30;;;29.80;99.90;;;;;;4955753;28;20643;-77
2023/08/05 07:51:22;;;;;;;2.00;1.17;;;30.50;99.90;;;;;;4955212;28;20669;-77
2023/08/05 07:53:49;;;;;;;3.90;1.83;;;31.00;99.90;;;;;;4955734;28;20955;-77
2023/08/05 07:56:15;;;;;;;3.83;1.90;;;31.70;99.90;;;;;;4955849;28;20689;-77
2023/08/05 07:58:45;;;;;;;4.67;1.87;;;32.30;99.90;;;;;;4966725;28;20588;-77
2023/08/05 08:01:19;;;;;;;2.20;1.00;;;32.60;99.90;;;;;;4955291;28;20592;-77
2023/08/05 08:03:46;;;;;;;3.13;1.10;;;32.80;99.90;;;;;;4955397;28;20607;-77
2023/08/05 08:06:15;;;;;;;3.73;1.27;;;33.20;99.90;;;;;;4956926;29;20686;-77
2023/08/05 08:08:42;;;;;;;3.20;1.40;;;33.60;99.90;;;;;;4951003;29;20614;-77
2023/08/05 08:11:10;;;;;;;2.10;1.20;;;34.20;99.90;;;;;;4946265;29;20636;-77
2023/08/05 08:13:36;;;;;;;2.07;1.00;;;34.80;99.90;;;;;;4954153;29;20635;-77
2023/08/05 08:16:02;;;;;;;2.80;1.00;;;35.30;99.90;;;;;;4969470;28;20730;-77
2023/08/05 08:18:27;;;;;;;3.03;1.40;;;36.00;99.90;;;;;;4954258;29;20627;-77
2023/08/05 08:20:53;;;;;;;2.67;1.33;;;36.30;99.90;;;;;;4952857;28;20184;-77
2023/08/05 08:23:19;;;;;;;3.53;1.73;;;36.00;99.30;;;;;;4957155;28;20208;-77
2023/08/05 08:25:45;;;;;;;2.43;1.10;;;35.60;97.20;;;;;;4962018;28;20184;-76
2023/08/05 08:28:11;;;;;;;5.83;1.93;;;35.30;97.00;;;;;;4959835;28;20607;-76
2023/08/05 08:30:37;;;;;;;2.23;1.33;;;35.10;96.30;;;;;;4957373;29;20666;-77
2023/08/05 08:33:03;;;;;;;3.77;1.30;;;35.00;96.90;;;;;;4957108;29;20196;-77
2023/08/05 08:35:29;;;;;;;1.87;1.17;;;35.10;96.50;;;;;;4973609;28;20216;-76
2023/08/05 08:37:55;;;;;;;2.33;0.93;;;34.90;95.70;;;;;;4964686;28;20634;-76
2023/08/05 08:40:21;;;;;;;4.33;1.10;;;35.00;96.10;;;;;;4955253;29;20595;-76
2023/08/05 08:42:49;;;;;;;2.03;0.90;;;35.20;95.80;;;;;;4956326;28;20227;-76
2023/08/05 08:45:17;;;;;;;1.80;1.10;;;35.00;94.30;;;;;;4955779;28;20243;-76
2023/08/05 08:47:45;;;;;;;1.83;0.90;;;34.80;94.10;;;;;;4953854;28;20658;-76
2023/08/05 08:50:11;;;;;;;1.80;0.87;;;34.80;94.00;;;;;;4953450;29;21240;-76
2023/08/05 08:52:39;;;;;;;1.87;1.10;;;34.90;93.80;;;;;;4954640;28;20702;-76
2023/08/05 08:55:05;;;;;;;1.93;1.13;;;34.80;92.10;;;;;;4954333;28;20596;-76
2023/08/05 08:57:31;;;;;;;2.33;0.80;;;34.60;91.30;;;;;;4954524;28;21274;-76
2023/08/05 08:59:57;;;;;;;1.50;0.80;;;34.50;91.70;;;;;;4947284;28;20700;-76
2023/08/05 09:02:25;;;;;;;3.17;0.90;;;34.40;91.50;;;;;;4954239;28;20180;-75
2023/08/05 09:04:55;;;;;;;3.10;0.90;;;34.60;90.50;;;;;;4953036;29;20184;-76
2023/08/05 09:07:27;;;;;;;2.00;0.80;;;34.70;88.30;;;;;;4952856;28;20723;-76
2023/08/05 09:09:53;;;;;;;2.37;0.70;;;34.40;86.90;;;;;;4954636;28;20583;-77
2023/08/05 09:12:19;;;;;;;1.97;0.80;;;34.20;88.80;;;;;;4960883;28;20726;-76
2023/08/05 09:14:50;;;;;;;2.13;0.80;;;34.30;89.20;;;;;;4954403;28;21615;-76
2023/08/05 09:17:16;;;;;;;1.97;1.00;;;34.10;88.00;;;;;;4953052;28;20199;-76
2023/08/05 09:19:45;;;;;;;1.90;0.90;;;33.60;84.60;;;;;;4954793;28;20656;-76
2023/08/05 09:22:10;;;;;;;2.23;0.80;;;33.10;84.00;;;;;;4952456;29;20182;-76
2023/08/05 09:24:36;;;;;;;3.07;1.10;;;32.90;86.20;;;;;;4953079;29;20594;-76
2023/08/05 09:27:02;;;;;;;3.23;1.40;;;32.70;85.50;;;;;;4953430;28;20702;-76
2023/08/05 09:29:28;;;;;;;3.23;2.30;;;31.90;81.40;;;;;;4952665;29;20232;-76
2023/08/05 09:31:58;;;;;;;2.33;1.10;;;31.20;82.70;;;;;;4951572;28;20223;-76
2023/08/05 09:34:35;;;;;;;2.10;1.20;;;30.50;82.00;;;;;;4953509;29;20957;-76
2023/08/05 09:37:02;;;;;;;2.27;1.30;;;29.80;82.90;;;;;;4953579;28;20613;-76
2023/08/05 09:39:43;;;;;;;2.10;1.20;;;29.20;84.30;;;;;;4952103;28;20642;-76
2023/08/05 09:42:24;;;;;;;5.00;1.50;;;28.80;87.00;;;;;;4953516;28;20735;-76
2023/08/05 09:44:53;;;;;;;6.67;1.50;;;28.60;89.10;;;;;;4952431;28;20595;-76
2023/08/05 09:47:23;;;;;;;2.73;1.40;;;28.40;89.70;;;;;;4961382;28;21177;-76
2023/08/05 09:49:50;;;;;;;2.20;1.20;;;28.20;90.20;;;;;;4952951;28;20946;-76
2023/08/05 09:52:17;;;;;;;2.20;1.10;;;27.90;90.00;;;;;;4945346;28;20655;-76
2023/08/05 09:54:52;;;;;;;3.83;1.27;;;27.50;89.70;;;;;;4954619;29;20610;-76
2023/08/05 09:57:20;;;;;;;2.40;1.60;;;27.20;90.00;;;;;;4953162;28;20641;-76
2023/08/05 09:59:47;;;;;;;2.40;1.83;;;26.80;90.40;;;;;;4951111;29;20606;-76
2023/08/05 10:02:20;;;;;;;4.20;1.30;;;26.40;90.30;;;;;;4952027;29;20684;-76
2023/08/05 10:04:46;;;;;;;2.33;1.10;;;26.00;90.90;;;;;;4952126;29;20643;-77
2023/08/05 10:07:14;;;;;;;2.10;1.10;;;25.70;91.60;;;;;;4953114;28;20612;-77
2023/08/05 10:09:40;;;;;;;2.17;1.20;;;25.60;92.70;;;;;;4952043;29;20592;-77
2023/08/05 10:12:07;;;;;;;3.33;0.90;;;25.70;93.30;;;;;;4951745;29;20635;-77
2023/08/05 10:14:34;;;;;;;2.63;1.10;;;25.70;93.80;;;;;;4953435;28;20587;-77
2023/08/05 10:17:01;;;;;;;2.20;1.00;;;25.70;94.00;;;;;;4951460;28;20647;-78
2023/08/05 10:19:28;;;;;;;2.07;1.13;;;25.70;94.20;;;;;;4953014;28;20592;-76
2023/08/05 10:22:08;;;;;;;2.00;0.90;;;25.70;94.40;;;;;;4967677;28;20592;-77
2023/08/05 10:24:53;;;;;;;1.70;1.13;;;25.70;94.50;;;;;;4953265;28;20629;-76
2023/08/05 10:27:34;;;;;;;3.40;1.30;;;25.70;94.80;;;;;;4949831;28;21053;-77
2023/08/05 10:30:07;;;;;;;2.63;1.60;;;25.70;95.30;;;;;;4953186;28;21228;-77
2023/08/05 10:32:35;;;;;;;3.80;1.13;;;25.80;96.00;;;;;;4953228;29;20647;-76
2023/08/05 10:35:39;;;;;;;3.13;1.50;;;25.90;96.50;;;;;;4951870;29;20610;-75
2023/08/05 10:38:07;;;;;;;2.80;1.20;;;26.00;96.20;;;;;;4949827;28;20640;-77
2023/08/05 10:40:45;;;;;;;2.40;1.17;;;26.10;97.00;;;;;;4934576;29;20587;-77
2023/08/05 10:43:24;;;;;;;2.30;1.03;;;26.10;96.60;;;;;;4950925;29;20588;-76
2023/08/05 10:45:50;;;;;;;1.90;1.23;;;26.10;96.90;;;;;;4952711;28;20586;-76
2023/08/05 10:48:16;;;;;;;1.70;1.10;;;26.10;97.10;;;;;;4954573;28;20600;-76
2023/08/05 10:50:42;;;;;;;2.57;1.20;;;26.10;97.10;;;;;;4953218;28;20183;-76
2023/08/05 10:53:11;;;;;;;1.77;1.03;;;26.10;97.00;;;;;;4951172;29;20615;-76
2023/08/05 10:55:53;;;;;;;2.00;0.90;;;26.10;96.80;;;;;;4952602;28;20176;-75
2023/08/05 10:58:30;;;;;;;2.23;0.90;;;26.10;96.70;;;;;;4960063;28;20587;-76
2023/08/05 11:01:04;;;;;;;1.50;0.80;;;26.30;97.50;;;;;;4950946;29;20593;-77
2023/08/05 11:03:45;;;;;;;1.50;0.70;;;26.60;98.10;;;;;;4951897;29;20695;-77
2023/08/05 11:06:13;;;;;;;1.60;0.80;;;27.00;98.10;;;;;;4952274;28;20799;-77
2023/08/05 11:08:41;;;;;;;1.40;0.77;;;27.30;97.90;;;;;;4953105;28;21027;-76
2023/08/05 11:11:13;;;;;;;1.50;0.70;;;27.50;97.00;;;;;;4934343;29;20651;-77
2023/08/05 11:13:44;;;;;;;2.27;0.80;;;27.50;95.30;;;;;;4952421;29;20597;-77
2023/08/05 11:16:14;;;;;;;1.50;0.80;;;27.40;94.80;;;;;;4950601;28;20650;-77
2023/08/05 11:18:55;;;;;;;1.77;0.90;;;27.20;94.50;;;;;;4950867;29;20592;-77
2023/08/05 11:21:21;;;;;;;2.33;0.73;;;27.00;94.20;;;;;;4950923;28;20605;-77
2023/08/05 11:23:47;;;;;;;1.50;0.80;;;26.90;94.50;;;;;;4951062;29;20580;-77
2023/08/05 11:26:14;;;;;;;2.33;0.80;;;26.80;94.60;;;;;;4950604;28;20247;-76
2023/08/05 11:28:46;;;;;;;1.50;0.70;;;26.80;94.90;;;;;;4952357;28;20588;-76
2023/08/05 11:31:22;;;;;;;1.53;0.80;;;26.90;94.80;;;;;;4966835;28;20672;-76
2023/08/05 11:33:50;;;;;;;1.90;0.83;;;27.00;94.90;;;;;;4951869;29;20625;-76
2023/08/05 11:36:16;;;;;;;1.60;0.70;;;27.20;96.40;;;;;;4952904;28;20603;-76
2023/08/05 11:38:42;;;;;;;1.40;0.70;;;27.50;96.10;;;;;;4947940;29;20624;-76
2023/08/05 11:41:08;;;;;;;1.50;0.70;;;27.70;95.70;;;;;;4951702;29;20191;-76
2023/08/05 11:43:35;;;;;;;2.07;0.80;;;28.00;95.70;;;;;;4952497;29;20216;-76
2023/08/05 11:46:01;;;;;;;1.53;0.70;;;28.30;95.40;;;;;;4948951;29;20672;-75
2023/08/05 11:48:28;;;;;;;1.97;0.80;;;28.50;94.90;;;;;;4950829;29;20639;-75
2023/08/05 11:51:00;;;;;;;1.50;0.70;;;28.60;93.90;;;;;;4953277;28;20627;-76
2023/08/05 11:53:28;;;;;;;1.50;0.63;;;28.80;93.10;;;;;;4957210;28;20583;-76
2023/08/05 11:55:54;;;;;;;1.43;0.60;;;29.10;94.00;;;;;;4954949;28;20595;-75
2023/08/05 11:58:23;;;;;;;1.40;0.70;;;29.40;94.70;;;;;;4952015;29;20615;-75
2023/08/05 12:00:57;;;;;;;1.40;0.60;;;29.70;93.20;;;;;;4934986;29;20603;-75
2023/08/05 12:03:29;;;;;;;1.40;0.70;;;29.90;91.20;;;;;;4958252;28;20598;-76
2023/08/05 12:06:03;;;;;;;1.67;0.60;;;30.20;92.20;;;;;;4955044;28;20596;-76
2023/08/05 12:08:44;;;;;;;1.50;0.60;;;30.30;89.40;;;;;;4955612;28;20600;-76
2023/08/05 12:11:13;;;;;;;1.83;0.83;;;30.10;86.70;;;;;;4953575;29;20639;-76
2023/08/05 12:13:44;;;;;;;1.40;0.60;;;29.80;84.90;;;;;;4954449;29;20695;-76
2023/08/05 12:16:16;;;;;;;1.70;0.70;;;29.40;83.10;;;;;;4946255;29;20619;-76
2023/08/05 12:18:46;;;;;;;2.63;0.77;;;29.10;81.70;;;;;;4954445;28;20580;-76
2023/08/05 12:21:15;;;;;;;1.60;0.70;;;28.70;82.70;;;;;;4957161;29;20654;-76
2023/08/05 12:23:41;;;;;;;3.27;1.03;;;28.30;82.50;;;;;;4957260;29;20617;-76
2023/08/05 12:26:12;;;;;;;2.03;0.90;;;28.00;82.80;;;;;;4939143;29;20624;-76
2023/08/05 12:28:38;;;;;;;1.60;0.90;;;27.40;82.60;;;;;;4955872;28;20672;-75
2023/08/05 12:31:04;;;;;;;1.50;0.80;;;27.00;84.00;;;;;;4956459;28;20779;-76
2023/08/05 12:33:30;;;;;;;3.40;1.00;;;26.70;85.30;;;;;;4964360;28;20635;-75
2023/08/05 12:35:55;;;;;;;2.50;0.80;;;26.40;85.90;;;;;;4957127;28;20595;-75
2023/08/05 12:38:21;;;;;;;1.60;0.77;;;26.10;87.00;;;;;;4963093;28;20204;-75
2023/08/05 12:40:47;;;;;;;2.77;0.80;;;25.80;88.20;;;;;;4956338;29;20184;-76
2023/08/05 12:43:12;;;;;;;2.90;1.00;;;25.50;90.00;;;;;;4957954;28;20180;-75
2023/08/05 12:45:39;;;;;;;2.17;1.10;;;25.10;91.00;;;;;;4953614;29;20176;-76
2023/08/05 12:48:05;;;;;;;2.20;1.40;;;24.80;92.30;;;;;;4954770;28;20204;-75
2023/08/05 12:50:30;;;;;;;2.30;1.50;;;24.40;93.00;;;;;;4954715;28;20594;-75